Homebases

[av_textblock size=” font_color=” color=” av-medium-font-size=” av-small-font-size=” av-mini-font-size=” av_uid=’av-jyzuj987′ custom_class=” admin_preview_bg=”]
EBAW

EBAW 240650Z 08003KT 9999 BKN020 02/00 Q1034 NOSIG

TAF TAF EBAW 232300Z 2400/2412 25011KT 9999 SCT030

EHWO

EHWO 240655Z AUTO VRB02KT 9999 OVC020 04/00 Q1034 WHT

TAF EHWO 240514Z 2406/2418 11003KT 9999 OVC020 PROB30 2406/2410 4000 BR PROB40 2415/2418 4000 BR MIFG

EBBL

EBBL 240655Z VRB02KT 9999 OVC020 03/00 Q1034 WHT WHT

TAF EBBL 201541Z 2019/2107 30007KT 9999 SCT040 BKN0 PROB30 TEMPO 2019/2024 33013KT 6000 -SHRA FEW015 SCT020 BKN070 TEMPO 2103/2107 SCT020 SCT050

Always consult the official METAR resources.

[/av_textblock]

[av_textblock size=” font_color=” color=” av-desktop-hide=” av-medium-hide=” av-small-hide=” av-mini-hide=” av-medium-font-size=” av-small-font-size=” av-mini-font-size=” av_uid=’av-srtu’]


[/av_textblock]